createdAt,value
2023-04-13T00:00:48.691Z,98.67
2023-04-13T00:03:17.610Z,98.51
2023-04-13T00:05:46.791Z,98.93
2023-04-13T00:08:17.100Z,99.51
2023-04-13T00:10:46.064Z,99.19
2023-04-13T00:13:14.828Z,99.42
2023-04-13T00:15:45.483Z,98.29
2023-04-13T00:18:12.598Z,99.63
2023-04-13T00:20:41.736Z,100.00
2023-04-13T00:23:08.724Z,100.00
2023-04-13T00:25:38.229Z,100.00
2023-04-13T00:28:06.429Z,100.00
2023-04-13T00:30:36.822Z,100.00
2023-04-13T00:33:04.088Z,100.00
2023-04-13T00:35:33.749Z,100.00
2023-04-13T00:38:04.282Z,100.00
2023-04-13T00:40:31.649Z,100.00
2023-04-13T00:43:00.585Z,100.00
2023-04-13T00:45:28.245Z,100.00
2023-04-13T00:47:58.077Z,100.00
2023-04-13T00:50:25.802Z,100.00
2023-04-13T00:52:55.214Z,100.00
2023-04-13T00:55:22.504Z,100.00
2023-04-13T00:57:53.515Z,100.00
2023-04-13T01:00:21.945Z,100.00
2023-04-13T01:02:50.679Z,100.00
2023-04-13T01:05:20.477Z,100.00
2023-04-13T01:08:28.574Z,100.00
2023-04-13T01:11:12.879Z,100.00
2023-04-13T01:13:56.084Z,100.00
2023-04-13T01:16:36.775Z,100.00
2023-04-13T01:19:08.119Z,100.00
2023-04-13T01:21:37.697Z,100.00
2023-04-13T01:24:17.894Z,100.00
2023-04-13T01:26:58.509Z,100.00
2023-04-13T01:29:27.761Z,100.00
2023-04-13T01:31:56.543Z,100.00
2023-04-13T01:34:26.736Z,100.00
2023-04-13T01:36:54.231Z,100.00
2023-04-13T01:39:22.180Z,100.00
2023-04-13T01:41:51.595Z,100.00
2023-04-13T01:44:21.151Z,100.00
2023-04-13T01:46:57.859Z,100.00
2023-04-13T01:49:28.228Z,100.00
2023-04-13T01:51:57.506Z,100.00
2023-04-13T01:54:27.360Z,100.00
2023-04-13T01:57:00.098Z,100.00
2023-04-13T01:59:29.454Z,100.00
2023-04-13T02:01:58.647Z,100.00
2023-04-13T02:04:25.784Z,100.00
2023-04-13T02:06:53.279Z,100.00
2023-04-13T02:09:20.198Z,100.00
2023-04-13T02:11:47.953Z,100.00
2023-04-13T02:14:15.703Z,100.00
2023-04-13T02:16:42.623Z,100.00
2023-04-13T02:19:14.851Z,100.00
2023-04-13T02:21:42.233Z,100.00
2023-04-13T02:24:11.818Z,100.00
2023-04-13T02:26:42.262Z,100.00
2023-04-13T02:29:10.109Z,100.00
2023-04-13T02:31:37.585Z,100.00
2023-04-13T02:34:11.678Z,100.00
2023-04-13T02:36:39.426Z,100.00
2023-04-13T02:39:06.429Z,100.00
2023-04-13T02:41:36.535Z,100.00
2023-04-13T02:44:03.465Z,100.00
2023-04-13T02:46:33.095Z,100.00
2023-04-13T02:49:00.431Z,100.00
2023-04-13T02:51:29.532Z,100.00
2023-04-13T02:53:58.836Z,100.00
2023-04-13T02:56:28.684Z,100.00
2023-04-13T02:58:55.726Z,100.00
2023-04-13T03:01:25.067Z,100.00
2023-04-13T03:03:52.285Z,100.00
2023-04-13T03:06:24.136Z,100.00
2023-04-13T03:08:52.770Z,100.00
2023-04-13T03:11:23.412Z,100.00
2023-04-13T03:13:54.242Z,100.00
2023-04-13T03:16:26.403Z,100.00
2023-04-13T03:18:54.510Z,100.00
2023-04-13T03:21:21.492Z,100.00
2023-04-13T03:23:50.906Z,100.00
2023-04-13T03:26:20.939Z,100.00
2023-04-13T03:28:50.000Z,100.00
2023-04-13T03:31:17.655Z,100.00
2023-04-13T03:33:44.598Z,100.00
2023-04-13T03:36:12.272Z,100.00
2023-04-13T03:38:39.266Z,100.00
2023-04-13T03:41:06.871Z,100.00
2023-04-13T03:43:36.541Z,100.00
2023-04-13T03:46:09.110Z,100.00
2023-04-13T03:48:39.785Z,100.00
2023-04-13T03:51:07.167Z,100.00
2023-04-13T03:53:38.760Z,100.00
2023-04-13T03:56:06.471Z,100.00
2023-04-13T03:58:33.452Z,100.00
2023-04-13T04:01:00.738Z,100.00
2023-04-13T04:03:27.872Z,100.00
2023-04-13T04:05:54.911Z,100.00
2023-04-13T04:08:22.168Z,100.00
2023-04-13T04:10:53.662Z,100.00
2023-04-13T04:13:23.657Z,100.00
2023-04-13T04:15:53.578Z,100.00
2023-04-13T04:18:23.707Z,100.00
2023-04-13T04:20:57.857Z,100.00
2023-04-13T04:23:28.162Z,100.00
2023-04-13T04:26:02.776Z,100.00
2023-04-13T04:28:30.582Z,100.00
2023-04-13T04:31:01.140Z,100.00
2023-04-13T04:33:28.151Z,100.00
2023-04-13T04:35:55.065Z,100.00
2023-04-13T04:38:24.452Z,100.00
2023-04-13T04:40:57.558Z,100.00
2023-04-13T04:43:30.501Z,100.00
2023-04-13T04:46:03.195Z,100.00
2023-04-13T04:48:31.060Z,100.00
2023-04-13T04:51:03.452Z,100.00
2023-04-13T04:53:30.444Z,100.00
2023-04-13T04:55:57.412Z,100.00
2023-04-13T04:58:24.354Z,100.00
2023-04-13T05:00:58.416Z,100.00
2023-04-13T05:03:25.806Z,100.00
2023-04-13T05:05:55.854Z,100.00
2023-04-13T05:08:25.143Z,100.00
2023-04-13T05:10:52.116Z,100.00
2023-04-13T05:13:21.741Z,100.00
2023-04-13T05:15:52.089Z,100.00
2023-04-13T05:18:19.216Z,100.00
2023-04-13T05:20:48.204Z,100.00
2023-04-13T05:23:18.217Z,100.00
2023-04-13T05:25:45.179Z,100.00
2023-04-13T05:28:12.440Z,100.00
2023-04-13T05:30:39.348Z,100.00
2023-04-13T05:33:08.178Z,100.00
2023-04-13T05:35:37.526Z,100.00
2023-04-13T05:38:07.042Z,100.00
2023-04-13T05:40:35.251Z,100.00
2023-04-13T05:43:02.345Z,100.00
2023-04-13T05:45:29.886Z,100.00
2023-04-13T05:47:59.323Z,99.10
2023-04-13T05:50:27.893Z,100.00
2023-04-13T05:52:54.830Z,99.93
2023-04-13T05:55:23.652Z,99.55
2023-04-13T05:57:51.433Z,98.38
2023-04-13T06:00:20.686Z,99.43
2023-04-13T06:02:50.916Z,97.37
2023-04-13T06:05:24.305Z,96.19
2023-04-13T06:07:51.714Z,94.55
2023-04-13T06:10:23.877Z,94.07
2023-04-13T06:12:53.344Z,92.59
2023-04-13T06:15:20.818Z,90.00
2023-04-13T06:17:51.616Z,88.78
2023-04-13T06:20:20.191Z,89.78
2023-04-13T06:22:47.435Z,90.30
2023-04-13T06:25:17.086Z,90.15
2023-04-13T06:27:47.164Z,90.95
2023-04-13T06:30:14.949Z,89.60
2023-04-13T06:32:47.430Z,88.05
2023-04-13T06:35:15.530Z,87.84
2023-04-13T06:37:42.821Z,87.05
2023-04-13T06:40:12.533Z,86.51
2023-04-13T06:42:41.427Z,84.59
2023-04-13T06:45:09.896Z,83.91
2023-04-13T06:47:39.863Z,83.05
2023-04-13T06:50:13.972Z,81.75
2023-04-13T06:52:47.630Z,84.32
2023-04-13T06:55:19.387Z,83.14
2023-04-13T06:57:46.469Z,83.65
2023-04-13T07:00:28.197Z,80.96
2023-04-13T07:03:02.457Z,81.41
2023-04-13T07:05:30.057Z,80.42
2023-04-13T07:07:57.228Z,78.93
2023-04-13T07:10:24.794Z,77.56
2023-04-13T07:12:51.798Z,77.37
2023-04-13T07:15:21.199Z,77.78
2023-04-13T07:17:52.508Z,74.21
2023-04-13T07:20:19.682Z,75.27
2023-04-13T07:22:49.189Z,74.84
2023-04-13T07:25:16.436Z,73.88
2023-04-13T07:27:43.322Z,73.87
2023-04-13T07:30:10.761Z,73.01
2023-04-13T07:32:41.031Z,72.27
2023-04-13T07:35:08.614Z,73.81
2023-04-13T07:37:38.112Z,72.64
2023-04-13T07:40:06.892Z,73.62
2023-04-13T07:42:33.885Z,71.18
2023-04-13T07:45:01.970Z,69.60
2023-04-13T07:47:31.623Z,69.64
2023-04-13T07:50:01.077Z,69.61
2023-04-13T07:52:28.914Z,68.13
2023-04-13T07:54:58.327Z,66.73
2023-04-13T07:57:25.651Z,68.07
2023-04-13T07:59:52.761Z,65.83
2023-04-13T08:02:22.594Z,66.56
2023-04-13T08:04:50.025Z,66.38
2023-04-13T08:07:17.023Z,66.65
2023-04-13T08:09:44.033Z,66.11
2023-04-13T08:12:13.733Z,65.27
2023-04-13T08:14:43.183Z,63.63
2023-04-13T08:17:13.119Z,61.75
2023-04-13T08:19:40.509Z,60.68
2023-04-13T08:22:07.485Z,61.64
2023-04-13T08:24:36.371Z,61.70
2023-04-13T08:27:10.591Z,61.03
2023-04-13T08:29:40.060Z,62.83
2023-04-13T08:32:09.749Z,64.06
2023-04-13T08:34:36.981Z,61.44
2023-04-13T08:37:03.996Z,61.26
2023-04-13T08:39:33.703Z,61.68
2023-04-13T08:42:01.893Z,62.96
2023-04-13T08:44:29.295Z,64.09
2023-04-13T08:46:56.643Z,63.37
2023-04-13T08:49:24.636Z,63.34
2023-04-13T08:51:59.727Z,62.54
2023-04-13T08:54:28.624Z,63.64
2023-04-13T08:56:59.461Z,64.42
2023-04-13T08:59:29.323Z,64.30
2023-04-13T09:01:58.293Z,63.97
2023-04-13T09:04:34.941Z,59.42
2023-04-13T09:07:04.702Z,57.01
2023-04-13T09:09:33.942Z,56.65
2023-04-13T09:12:01.026Z,55.21
2023-04-13T09:14:28.647Z,56.42
2023-04-13T09:16:55.908Z,56.53
2023-04-13T09:19:33.420Z,57.01
2023-04-13T09:22:16.642Z,54.15
2023-04-13T09:24:43.665Z,52.71
2023-04-13T09:27:21.768Z,50.92
2023-04-13T09:30:01.060Z,49.71
2023-04-13T09:32:31.311Z,50.70
2023-04-13T09:34:58.286Z,51.06
2023-04-13T09:37:28.259Z,49.20
2023-04-13T09:40:14.243Z,49.35
2023-04-13T09:42:57.111Z,48.98
2023-04-13T09:45:36.485Z,49.26
2023-04-13T09:48:20.721Z,49.19
2023-04-13T09:51:02.891Z,49.54
2023-04-13T09:53:45.805Z,48.41
2023-04-13T09:56:13.923Z,51.03
2023-04-13T09:58:45.792Z,51.55
2023-04-13T10:01:16.688Z,50.90
2023-04-13T10:03:44.476Z,49.18
2023-04-13T10:06:17.705Z,51.69
2023-04-13T10:08:46.386Z,49.68
2023-04-13T10:11:15.260Z,48.36
2023-04-13T10:14:02.843Z,48.46
2023-04-13T10:17:05.609Z,52.66
2023-04-13T10:19:43.442Z,51.00
2023-04-13T10:22:13.929Z,51.75
2023-04-13T10:24:41.505Z,52.07
2023-04-13T10:27:24.306Z,52.53
2023-04-13T10:29:53.574Z,52.28
2023-04-13T10:32:28.267Z,51.91
2023-04-13T10:34:55.965Z,52.49
2023-04-13T10:37:28.710Z,51.73
2023-04-13T10:40:08.041Z,51.25
2023-04-13T10:45:27.260Z,59.76
2023-04-13T10:47:56.017Z,64.05
2023-04-13T10:50:27.530Z,62.63
2023-04-13T10:53:26.532Z,57.39
2023-04-13T10:55:54.022Z,52.40
2023-04-13T10:58:20.945Z,46.28
2023-04-13T11:00:48.251Z,43.44
2023-04-13T11:03:17.251Z,46.05
2023-04-13T11:05:57.632Z,49.78
2023-04-13T11:08:28.098Z,46.11
2023-04-13T11:10:57.183Z,47.03
2023-04-13T11:13:29.137Z,47.79
2023-04-13T11:16:08.058Z,47.92
2023-04-13T11:18:37.252Z,46.09
2023-04-13T11:21:07.947Z,42.39
2023-04-13T11:23:36.050Z,41.78
2023-04-13T11:26:06.246Z,39.78
2023-04-13T11:28:42.468Z,39.21
2023-04-13T11:31:12.848Z,38.99
2023-04-13T11:33:40.863Z,42.32
2023-04-13T11:36:11.956Z,42.84
2023-04-13T11:38:41.573Z,43.52
2023-04-13T11:41:16.580Z,40.80
2023-04-13T11:43:48.774Z,39.75
2023-04-13T11:46:27.085Z,39.25
2023-04-13T11:48:54.742Z,38.29
2023-04-13T11:51:25.584Z,38.01
2023-04-13T11:53:53.144Z,39.32
2023-04-13T11:56:20.800Z,40.94
2023-04-13T11:58:51.505Z,43.11
2023-04-13T12:01:27.204Z,46.24
2023-04-13T12:04:15.350Z,45.91
2023-04-13T12:06:53.184Z,46.60
2023-04-13T12:09:22.149Z,46.61
2023-04-13T12:12:07.741Z,44.36
2023-04-13T12:19:57.240Z,40.54
2023-04-13T12:22:44.016Z,40.98
2023-04-13T12:25:24.464Z,41.13
2023-04-13T12:27:53.679Z,40.54
2023-04-13T12:30:27.576Z,42.39
2023-04-13T12:32:56.322Z,41.76
2023-04-13T12:35:23.691Z,41.93
2023-04-13T12:37:50.720Z,42.33
2023-04-13T12:40:18.571Z,41.11
2023-04-13T12:42:49.470Z,40.32
2023-04-13T12:45:16.962Z,41.47
2023-04-13T12:47:46.398Z,42.69
2023-04-13T12:50:16.982Z,44.06
2023-04-13T12:52:44.439Z,43.75
2023-04-13T12:55:13.578Z,43.54
2023-04-13T12:57:40.832Z,43.85
2023-04-13T13:00:12.197Z,43.04
2023-04-13T13:02:41.477Z,42.44
2023-04-13T13:05:11.080Z,42.73
2023-04-13T13:07:37.988Z,41.75
2023-04-13T13:10:15.057Z,42.58
2023-04-13T13:12:53.025Z,44.04
2023-04-13T13:15:22.726Z,45.63
2023-04-13T13:17:51.958Z,43.96
2023-04-13T13:20:18.995Z,44.13
2023-04-13T13:22:47.516Z,43.10
2023-04-13T13:25:16.254Z,44.08
2023-04-13T13:28:10.369Z,44.90
2023-04-13T13:30:32.615Z,45.22
2023-04-13T13:33:02.251Z,46.02
2023-04-13T13:35:31.711Z,46.79
2023-04-13T13:37:59.291Z,46.10
2023-04-13T13:40:26.753Z,45.25
2023-04-13T13:42:54.186Z,44.69
2023-04-13T13:45:21.927Z,46.57
2023-04-13T13:47:54.485Z,46.06
2023-04-13T13:50:24.420Z,44.89
2023-04-13T13:53:02.255Z,46.19
2023-04-13T13:55:31.663Z,45.26
2023-04-13T13:57:59.336Z,44.28
2023-04-13T14:00:27.255Z,43.94
2023-04-13T14:02:57.034Z,43.38
2023-04-13T14:05:24.555Z,43.42
2023-04-13T14:07:51.703Z,43.98
2023-04-13T14:10:18.977Z,44.42
2023-04-13T14:12:49.606Z,44.08
2023-04-13T14:15:20.596Z,42.86
2023-04-13T14:17:55.810Z,44.32
2023-04-13T14:20:35.471Z,44.12
2023-04-13T14:23:02.477Z,45.21
2023-04-13T14:25:31.873Z,44.99
2023-04-13T14:27:58.852Z,44.87
2023-04-13T14:30:31.253Z,45.15
2023-04-13T14:33:01.281Z,45.09
2023-04-13T14:35:29.486Z,46.05
2023-04-13T14:37:56.854Z,47.51
2023-04-13T14:40:24.365Z,46.65
2023-04-13T14:42:55.037Z,46.02
2023-04-13T14:45:25.193Z,46.37
2023-04-13T14:47:54.118Z,47.26
2023-04-13T14:50:21.337Z,47.42
2023-04-13T14:52:50.430Z,46.80
2023-04-13T14:55:17.812Z,46.23
2023-04-13T14:57:45.781Z,45.87
2023-04-13T15:00:21.260Z,44.68
2023-04-13T15:02:50.664Z,45.70
2023-04-13T15:05:18.931Z,45.72
2023-04-13T15:07:46.230Z,46.46
2023-04-13T15:10:13.230Z,46.16
2023-04-13T15:12:41.112Z,46.91
2023-04-13T15:15:09.167Z,46.68
2023-04-13T15:17:36.414Z,46.59
2023-04-13T15:20:07.451Z,47.16
2023-04-13T15:22:38.985Z,47.94
2023-04-13T15:25:06.864Z,52.15
2023-04-13T15:27:36.376Z,55.89
2023-04-13T15:30:04.010Z,56.52
2023-04-13T15:32:36.816Z,57.20
2023-04-13T15:35:04.040Z,58.47
2023-04-13T15:37:35.487Z,58.95
2023-04-13T15:40:08.008Z,59.48
2023-04-13T15:42:34.859Z,59.74
2023-04-13T15:45:03.110Z,61.27
2023-04-13T15:47:30.160Z,61.51
2023-04-13T15:49:57.156Z,62.18
2023-04-13T15:52:24.385Z,61.53
2023-04-13T15:54:51.465Z,60.19
2023-04-13T15:57:20.777Z,58.71
2023-04-13T15:59:49.779Z,57.64
2023-04-13T16:02:16.926Z,56.49
2023-04-13T16:04:46.318Z,56.15
2023-04-13T16:07:14.459Z,56.57
2023-04-13T16:09:47.115Z,56.21
2023-04-13T16:12:17.667Z,55.89
2023-04-13T16:14:47.150Z,56.44
2023-04-13T16:17:15.631Z,57.07
2023-04-13T16:19:46.582Z,57.09
2023-04-13T16:22:13.644Z,57.82
2023-04-13T16:24:43.079Z,59.17
2023-04-13T16:27:12.572Z,58.91
2023-04-13T16:29:41.638Z,58.76
2023-04-13T16:32:09.082Z,58.73
2023-04-13T16:34:40.662Z,59.59
2023-04-13T16:37:15.574Z,58.98
2023-04-13T16:39:44.296Z,59.66
2023-04-13T16:42:12.233Z,60.03
2023-04-13T16:44:47.440Z,59.69
2023-04-13T16:47:14.609Z,59.49
2023-04-13T16:49:46.138Z,59.57
2023-04-13T16:52:13.146Z,60.15
2023-04-13T16:54:43.989Z,58.97
2023-04-13T16:57:11.969Z,58.77
2023-04-13T16:59:39.072Z,60.10
2023-04-13T17:02:15.363Z,60.49
2023-04-13T17:04:57.049Z,61.19
2023-04-13T17:07:28.221Z,61.45
2023-04-13T17:09:55.859Z,60.07
2023-04-13T17:12:23.359Z,60.14
2023-04-13T17:14:52.947Z,59.37
2023-04-13T17:17:22.293Z,58.23
2023-04-13T17:19:52.280Z,58.18
2023-04-13T17:22:19.708Z,58.42
2023-04-13T17:24:46.944Z,59.67
2023-04-13T17:27:16.511Z,59.98
2023-04-13T17:29:43.575Z,59.44
2023-04-13T17:32:10.819Z,59.10
2023-04-13T17:34:37.968Z,59.91
2023-04-13T17:37:07.625Z,60.11
2023-04-13T17:39:36.084Z,60.52
2023-04-13T17:42:03.246Z,60.24
2023-04-13T17:44:30.396Z,60.19
2023-04-13T17:46:57.396Z,59.71
2023-04-13T17:49:27.912Z,61.18
2023-04-13T17:51:54.856Z,60.31
2023-04-13T17:54:21.755Z,60.74
2023-04-13T17:56:48.701Z,60.73
2023-04-13T17:59:18.629Z,60.70
2023-04-13T18:01:45.985Z,61.33
2023-04-13T18:04:15.716Z,61.67
2023-04-13T18:06:45.317Z,61.33
2023-04-13T18:09:14.860Z,61.23
2023-04-13T18:11:41.949Z,61.04
2023-04-13T18:14:15.170Z,61.03
2023-04-13T18:16:42.658Z,61.83
2023-04-13T18:19:16.571Z,60.65
2023-04-13T18:21:45.781Z,61.50
2023-04-13T18:24:12.717Z,60.81
2023-04-13T18:26:39.980Z,60.24
2023-04-13T18:29:09.642Z,60.22
2023-04-13T18:31:39.209Z,60.67
2023-04-13T18:34:10.524Z,61.00
2023-04-13T18:36:37.529Z,61.16
2023-04-13T18:39:04.485Z,61.24
2023-04-13T18:41:33.846Z,60.94
2023-04-13T18:44:03.282Z,61.71
2023-04-13T18:46:33.673Z,62.00
2023-04-13T18:49:01.372Z,63.68
2023-04-13T18:51:30.737Z,64.53
2023-04-13T18:53:59.948Z,65.01
2023-04-13T18:56:27.059Z,64.71
2023-04-13T18:58:56.148Z,65.28
2023-04-13T19:01:23.071Z,66.66
2023-04-13T19:03:52.386Z,66.51
2023-04-13T19:06:22.005Z,66.82
2023-04-13T19:08:49.065Z,66.29
2023-04-13T19:11:17.575Z,67.96
2023-04-13T19:13:46.250Z,67.69
2023-04-13T19:16:16.108Z,68.38
2023-04-13T19:18:43.034Z,67.75
2023-04-13T19:21:12.494Z,69.07
2023-04-13T19:23:40.564Z,68.23
2023-04-13T19:26:07.702Z,69.27
2023-04-13T19:28:39.521Z,69.07
2023-04-13T19:31:09.038Z,67.69
2023-04-13T19:33:36.033Z,67.42
2023-04-13T19:36:05.758Z,67.41
2023-04-13T19:38:38.326Z,67.37
2023-04-13T19:41:05.275Z,67.57
2023-04-13T19:43:32.377Z,68.37
2023-04-13T19:45:59.565Z,68.12
2023-04-13T19:48:28.734Z,67.71
2023-04-13T19:50:56.029Z,67.17
2023-04-13T19:53:23.051Z,68.11
2023-04-13T19:55:53.210Z,68.17
2023-04-13T19:58:20.276Z,68.57
2023-04-13T20:00:47.405Z,67.78
2023-04-13T20:03:20.533Z,67.82
2023-04-13T20:05:49.697Z,67.20
2023-04-13T20:08:17.457Z,67.36
2023-04-13T20:10:44.610Z,67.82
2023-04-13T20:13:11.774Z,67.79
2023-04-13T20:15:39.545Z,67.86
2023-04-13T20:18:09.275Z,67.82
2023-04-13T20:20:42.501Z,67.94
2023-04-13T20:23:14.728Z,67.71
2023-04-13T20:25:44.180Z,67.64
2023-04-13T20:28:11.279Z,67.66
2023-04-13T20:30:39.505Z,69.78
2023-04-13T20:33:09.076Z,69.81
2023-04-13T20:35:38.653Z,70.32
2023-04-13T20:38:06.158Z,70.59
2023-04-13T20:40:37.883Z,70.18
2023-04-13T20:43:11.247Z,70.52
2023-04-13T20:45:42.998Z,70.89
2023-04-13T20:50:47.675Z,72.09
2023-04-13T20:53:17.795Z,72.59
2023-04-13T20:55:47.155Z,72.41
2023-04-13T20:58:17.181Z,72.46
2023-04-13T21:00:44.960Z,72.86
2023-04-13T21:03:17.288Z,73.52
2023-04-13T21:05:44.522Z,74.60
2023-04-13T21:08:14.892Z,73.39
2023-04-13T21:10:44.244Z,73.86
2023-04-13T21:13:16.294Z,73.33
2023-04-13T21:15:43.509Z,73.53
2023-04-13T21:18:13.595Z,73.72
2023-04-13T21:20:44.077Z,74.25
2023-04-13T21:23:11.093Z,75.03
2023-04-13T21:25:38.076Z,74.89
2023-04-13T21:28:08.348Z,75.20
2023-04-13T21:30:35.696Z,75.75
2023-04-13T21:33:02.716Z,77.04
2023-04-13T21:35:29.749Z,78.42
2023-04-13T21:37:56.670Z,77.78
2023-04-13T21:40:24.888Z,76.94
2023-04-13T21:42:54.849Z,77.13
2023-04-13T21:45:21.866Z,78.63
2023-04-13T21:47:48.914Z,78.71
2023-04-13T21:50:18.887Z,78.82
2023-04-13T21:52:45.859Z,78.63
2023-04-13T21:55:18.933Z,77.72
2023-04-13T21:57:49.616Z,78.13
2023-04-13T22:00:18.065Z,79.91
2023-04-13T22:02:45.165Z,79.54
2023-04-13T22:05:16.694Z,78.93
2023-04-13T22:07:48.422Z,79.42
2023-04-13T22:10:15.523Z,79.69
2023-04-13T22:12:42.474Z,79.80
2023-04-13T22:15:09.905Z,80.11
2023-04-13T22:17:39.222Z,79.87
2023-04-13T22:20:07.206Z,79.93
2023-04-13T22:22:36.434Z,79.31
2023-04-13T22:25:06.194Z,81.35
2023-04-13T22:27:36.670Z,81.35
2023-04-13T22:30:03.832Z,80.51
2023-04-13T22:32:33.188Z,80.95
2023-04-13T22:35:02.686Z,80.20
2023-04-13T22:37:35.807Z,81.41
2023-04-13T22:40:04.588Z,82.67
2023-04-13T22:42:36.627Z,82.72
2023-04-13T22:45:06.895Z,82.15
2023-04-13T22:47:33.910Z,81.88
2023-04-13T22:50:01.563Z,81.61
2023-04-13T22:52:28.530Z,80.52
2023-04-13T22:54:57.787Z,81.50
2023-04-13T22:57:27.358Z,81.28
2023-04-13T22:59:59.017Z,82.17
2023-04-13T23:02:28.700Z,81.79
2023-04-13T23:05:02.110Z,81.26
2023-04-13T23:07:34.279Z,80.04
2023-04-13T23:10:01.710Z,80.41
2023-04-13T23:12:29.376Z,80.79
2023-04-13T23:14:59.117Z,81.60
2023-04-13T23:17:26.463Z,81.08
2023-04-13T23:19:54.869Z,80.51
2023-04-13T23:22:22.380Z,81.25
2023-04-13T23:24:49.982Z,81.26
2023-04-13T23:27:18.132Z,80.88
2023-04-13T23:29:54.916Z,81.86
2023-04-13T23:32:24.296Z,82.56
2023-04-13T23:34:51.363Z,82.72
2023-04-13T23:37:18.346Z,83.18
2023-04-13T23:39:48.773Z,83.28
2023-04-13T23:42:18.062Z,82.47
2023-04-13T23:44:47.284Z,82.73
2023-04-13T23:47:15.276Z,83.68
2023-04-13T23:49:46.733Z,82.37
2023-04-13T23:52:16.086Z,82.34
2023-04-13T23:54:43.090Z,82.09
2023-04-13T23:57:11.917Z,83.23
2023-04-13T23:59:39.162Z,82.68
